Terminal Aerodrome Forecast
Issued by NWS Cleveland, OH

Home | Current Version | Previous Version | Graphics & Text | Print | Product List | Glossary On
Versions: 1 2 3 4 5 6 7 8 9 10 11 12 13 14 15 16 17 18 19 20 21 22
000
FTUS41 KCLE 140542
TAFERI
TAF
KERI 140542Z 1406/1506 06012KT 3SM -SN SCT015 OVC025
      TEMPO 1408/1412 1 1/2SM -SN SCT008 OVC015
     FM141200 01015G25KT P6SM -SHSN SCT008 OVC015
     FM141500 33012KT P6SM SCT025 OVC035
     FM142300 27010KT P6SM SCT015 BKN035=

USA.gov is the U.S. government's official web portal to all federal, state and local government web resources and services.